Time;durP1;ratioP1;P1;durP2;ratioP2;P2;SDS_P1;SDS_P2;PMS_P1;PMS_P2;Temp;Humidity;BMP_temperature;BMP_pressure;BME280_temperature;BME280_humidity;BME280_pressure;Samples;Min_cycle;Max_cycle;Signal;HPM_P1;HPM_P2
2021/11/26 00:01:38;;;;;;;39.65;13.35;;;-0.10;99.90;;;;;;4994789;28;20068;-67
2021/11/26 00:04:05;;;;;;;35.88;12.38;;;-0.10;99.90;;;;;;5013233;28;20105;-67
2021/11/26 00:06:31;;;;;;;48.28;15.77;;;-0.20;99.90;;;;;;4996553;28;20083;-67
2021/11/26 00:08:59;;;;;;;38.85;11.60;;;-0.10;99.90;;;;;;5018258;28;20125;-67
2021/11/26 00:11:26;;;;;;;33.67;11.52;;;-0.20;99.90;;;;;;5002924;28;20040;-67
2021/11/26 00:14:04;;;;;;;46.25;15.93;;;-0.10;99.90;;;;;;5015659;28;20033;-67
2021/11/26 00:16:36;;;;;;;35.92;12.93;;;-0.20;99.90;;;;;;4992707;28;20030;-67
2021/11/26 00:19:05;;;;;;;45.08;13.48;;;-0.20;99.90;;;;;;5018437;28;20120;-67
2021/11/26 00:21:32;;;;;;;37.97;14.45;;;-0.10;99.90;;;;;;5014235;28;20026;-67
2021/11/26 00:23:57;;;;;;;38.72;12.35;;;-0.10;99.90;;;;;;5012825;28;20038;-67
2021/11/26 00:26:23;;;;;;;37.72;12.93;;;-0.10;99.90;;;;;;5020112;28;20033;-67
2021/11/26 00:28:49;;;;;;;31.45;15.35;;;0.00;99.90;;;;;;5010347;28;20030;-67
2021/11/26 00:31:15;;;;;;;40.88;15.27;;;0.00;99.90;;;;;;5014280;28;20463;-67
2021/11/26 00:33:41;;;;;;;35.60;14.57;;;-0.10;99.90;;;;;;5011630;28;20512;-67
2021/11/26 00:36:07;;;;;;;38.70;14.27;;;-0.10;99.90;;;;;;5011625;28;20128;-67
2021/11/26 00:38:32;;;;;;;44.03;13.88;;;-0.10;99.90;;;;;;5010103;28;20068;-67
2021/11/26 00:40:58;;;;;;;41.30;14.27;;;-0.10;99.90;;;;;;5012428;28;20030;-67
2021/11/26 00:43:24;;;;;;;44.55;14.18;;;-0.10;99.90;;;;;;5009843;28;20824;-67
2021/11/26 00:45:50;;;;;;;42.75;14.95;;;-0.10;99.90;;;;;;5012937;28;20136;-67
2021/11/26 00:48:15;;;;;;;33.97;11.07;;;-0.10;99.90;;;;;;5011629;28;20405;-67
2021/11/26 00:50:41;;;;;;;35.15;12.07;;;-0.10;99.90;;;;;;5012379;28;20029;-67
2021/11/26 00:53:07;;;;;;;36.58;11.88;;;-0.20;99.90;;;;;;5011068;28;20430;-67
2021/11/26 00:55:32;;;;;;;29.10;11.90;;;-0.10;99.90;;;;;;5011549;28;20030;-67
2021/11/26 00:57:58;;;;;;;41.00;12.82;;;-0.10;99.90;;;;;;5016497;28;20029;-68
2021/11/26 01:00:24;;;;;;;35.95;12.75;;;-0.10;99.90;;;;;;5013751;28;20036;-67
2021/11/26 01:02:50;;;;;;;36.92;12.15;;;-0.10;99.90;;;;;;5011475;28;20068;-67
2021/11/26 01:05:16;;;;;;;30.70;12.25;;;-0.10;99.90;;;;;;5009764;28;21990;-66
2021/11/26 01:07:42;;;;;;;38.25;14.35;;;-0.10;99.90;;;;;;4997995;28;20030;-67
2021/11/26 01:10:15;;;;;;;35.53;11.13;;;-0.10;99.90;;;;;;5013451;28;20018;-68
2021/11/26 01:12:41;;;;;;;31.65;10.27;;;0.00;99.90;;;;;;5012855;28;20088;-67
2021/11/26 01:15:09;;;;;;;32.80;12.00;;;-0.10;99.90;;;;;;4993621;28;20038;-67
2021/11/26 01:17:37;;;;;;;36.38;13.65;;;0.00;99.90;;;;;;5012864;28;20033;-67
2021/11/26 01:20:05;;;;;;;36.83;14.48;;;-0.10;99.90;;;;;;5012281;28;20061;-67
2021/11/26 01:22:30;;;;;;;36.13;12.85;;;-0.10;99.90;;;;;;4991038;28;20033;-67
2021/11/26 01:24:56;;;;;;;32.65;13.18;;;-0.20;99.90;;;;;;5013687;28;20037;-67
2021/11/26 01:27:22;;;;;;;34.50;11.18;;;-0.10;99.90;;;;;;5019056;28;20036;-67
2021/11/26 01:29:47;;;;;;;41.80;12.15;;;-0.10;99.90;;;;;;5020179;28;20048;-67
2021/11/26 01:32:13;;;;;;;34.20;12.63;;;-0.10;99.90;;;;;;5018864;28;20049;-67
2021/11/26 01:34:39;;;;;;;31.05;12.48;;;-0.10;99.90;;;;;;5016867;28;20030;-67
2021/11/26 01:37:05;;;;;;;27.27;10.45;;;-0.10;99.90;;;;;;5012892;28;20478;-67
2021/11/26 01:39:31;;;;;;;33.53;10.48;;;0.00;99.90;;;;;;5010342;28;20062;-67
2021/11/26 01:41:56;;;;;;;39.17;13.23;;;0.00;99.90;;;;;;5011285;28;20033;-67
2021/11/26 01:44:22;;;;;;;33.95;12.48;;;0.00;99.90;;;;;;5017234;28;20030;-68
2021/11/26 01:46:48;;;;;;;33.53;10.98;;;0.00;99.90;;;;;;5011523;28;20030;-67
2021/11/26 01:49:14;;;;;;;33.78;12.38;;;0.00;99.90;;;;;;5010905;28;20069;-67
2021/11/26 01:51:40;;;;;;;34.80;12.07;;;0.10;99.90;;;;;;5000038;28;20087;-67
2021/11/26 01:54:07;;;;;;;36.13;13.15;;;0.10;99.90;;;;;;5014322;28;20448;-67
2021/11/26 01:56:33;;;;;;;39.13;12.00;;;0.00;99.90;;;;;;4997268;28;20025;-67
2021/11/26 01:59:00;;;;;;;38.30;14.60;;;-0.10;99.90;;;;;;5013116;28;20160;-67
2021/11/26 02:01:26;;;;;;;43.78;11.30;;;-0.10;99.90;;;;;;4994019;28;20030;-68
2021/11/26 02:03:52;;;;;;;36.40;13.25;;;-0.10;99.90;;;;;;5011324;28;20033;-67
2021/11/26 02:06:18;;;;;;;26.58;10.98;;;-0.10;99.90;;;;;;4993583;28;20038;-68
2021/11/26 02:08:44;;;;;;;30.15;11.88;;;-0.10;99.90;;;;;;5015542;28;20032;-68
2021/11/26 02:11:10;;;;;;;36.05;13.48;;;0.00;99.90;;;;;;4996751;28;20041;-68
2021/11/26 02:13:35;;;;;;;31.80;12.68;;;0.00;99.90;;;;;;4999784;28;20033;-68
2021/11/26 02:16:03;;;;;;;38.00;13.13;;;-0.10;99.90;;;;;;5016641;28;20167;-68
2021/11/26 02:18:29;;;;;;;34.15;13.02;;;-0.10;99.90;;;;;;5011604;28;20025;-68
2021/11/26 02:20:54;;;;;;;35.10;11.20;;;-0.10;99.90;;;;;;4996641;28;20063;-68
2021/11/26 02:23:20;;;;;;;33.72;12.00;;;0.00;99.90;;;;;;5016347;28;20449;-68
2021/11/26 02:25:46;;;;;;;30.00;12.73;;;-0.10;99.90;;;;;;5014700;28;20033;-68
2021/11/26 02:28:15;;;;;;;37.33;13.45;;;-0.10;99.90;;;;;;4997258;28;20462;-68
2021/11/26 02:30:41;;;;;;;27.48;12.27;;;0.00;99.90;;;;;;4991235;28;21870;-69
2021/11/26 02:33:12;;;;;;;28.48;11.85;;;0.00;99.90;;;;;;4996062;28;20033;-68
2021/11/26 02:35:39;;;;;;;29.67;12.05;;;0.00;99.90;;;;;;5012858;28;20109;-68
2021/11/26 02:38:07;;;;;;;40.80;15.38;;;0.10;99.90;;;;;;5007703;28;20037;-68
2021/11/26 02:40:34;;;;;;;43.33;12.33;;;0.10;99.90;;;;;;4999005;28;20108;-68
2021/11/26 02:43:00;;;;;;;31.95;11.70;;;0.10;99.90;;;;;;5015901;28;20032;-67
2021/11/26 02:45:26;;;;;;;29.35;11.00;;;0.10;99.90;;;;;;5014007;28;20029;-68
2021/11/26 02:47:53;;;;;;;33.88;11.75;;;0.10;99.90;;;;;;5013764;28;20108;-68
2021/11/26 02:50:19;;;;;;;33.30;11.82;;;0.10;99.90;;;;;;5013325;28;20398;-68
2021/11/26 02:52:45;;;;;;;34.00;13.07;;;0.10;99.90;;;;;;4995795;28;20053;-68
2021/11/26 02:55:15;;;;;;;32.55;11.38;;;0.10;99.90;;;;;;5009537;28;20108;-68
2021/11/26 02:57:41;;;;;;;37.55;13.05;;;0.10;99.90;;;;;;5016729;28;20053;-68
2021/11/26 03:00:08;;;;;;;39.30;12.77;;;0.20;99.90;;;;;;5013616;28;20104;-68
2021/11/26 03:02:34;;;;;;;30.38;12.13;;;0.10;99.90;;;;;;5008973;28;20116;-68
2021/11/26 03:05:00;;;;;;;39.72;11.40;;;0.10;99.90;;;;;;5009527;28;20031;-68
2021/11/26 03:07:26;;;;;;;24.48;9.57;;;0.10;99.90;;;;;;5011700;28;20037;-68
2021/11/26 03:09:51;;;;;;;32.15;11.55;;;0.10;99.90;;;;;;5013870;28;20030;-68
2021/11/26 03:12:17;;;;;;;41.75;13.18;;;0.10;99.90;;;;;;5012288;28;20112;-68
2021/11/26 03:14:43;;;;;;;37.97;13.05;;;0.20;99.90;;;;;;5013580;28;20037;-68
2021/11/26 03:17:09;;;;;;;35.50;12.75;;;0.10;99.90;;;;;;5015064;28;20056;-68
2021/11/26 03:19:34;;;;;;;29.38;12.80;;;0.10;99.90;;;;;;5012703;28;20797;-68
2021/11/26 03:22:00;;;;;;;29.88;11.13;;;0.20;99.90;;;;;;5012264;28;21972;-68
2021/11/26 03:24:26;;;;;;;44.33;13.18;;;0.20;99.90;;;;;;5012834;28;20029;-68
2021/11/26 03:26:52;;;;;;;36.78;12.15;;;0.20;99.90;;;;;;5011016;28;20087;-68
2021/11/26 03:29:17;;;;;;;32.58;11.43;;;0.30;99.90;;;;;;5014172;28;20041;-68
2021/11/26 03:31:43;;;;;;;39.15;12.35;;;0.20;99.90;;;;;;5009906;28;21492;-68
2021/11/26 03:34:09;;;;;;;33.88;12.38;;;0.20;99.90;;;;;;5012017;28;20120;-68
2021/11/26 03:36:34;;;;;;;43.63;13.55;;;0.20;99.90;;;;;;5014186;28;20061;-69
2021/11/26 03:39:01;;;;;;;35.67;12.15;;;0.30;99.90;;;;;;5012761;28;20084;-68
2021/11/26 03:41:26;;;;;;;33.83;10.55;;;0.30;99.90;;;;;;5008452;28;20044;-68
2021/11/26 03:43:52;;;;;;;40.03;12.32;;;0.20;99.90;;;;;;4997239;28;20041;-68
2021/11/26 03:46:19;;;;;;;36.92;11.93;;;0.20;99.90;;;;;;5015183;28;20044;-68
2021/11/26 03:48:46;;;;;;;28.60;10.98;;;0.20;99.90;;;;;;5017462;28;20029;-67
2021/11/26 03:51:12;;;;;;;32.60;12.50;;;0.20;99.90;;;;;;5009727;28;20037;-68
2021/11/26 03:53:37;;;;;;;33.05;9.70;;;0.20;99.90;;;;;;5012053;28;20076;-68
2021/11/26 03:56:04;;;;;;;35.72;12.15;;;0.20;99.90;;;;;;5014865;28;20034;-68
2021/11/26 03:58:29;;;;;;;32.53;13.07;;;0.20;99.90;;;;;;5015287;28;20027;-68
2021/11/26 04:00:55;;;;;;;41.60;14.32;;;0.30;99.90;;;;;;5012156;28;20034;-68
2021/11/26 04:03:20;;;;;;;38.45;13.73;;;0.30;99.90;;;;;;5020680;28;20033;-68
2021/11/26 04:05:46;;;;;;;31.80;10.95;;;0.30;99.90;;;;;;4999491;28;20029;-68
2021/11/26 04:08:12;;;;;;;32.45;10.88;;;0.30;99.90;;;;;;5014990;28;20025;-68
2021/11/26 04:10:38;;;;;;;34.67;10.48;;;0.30;99.90;;;;;;5011954;28;20108;-68
2021/11/26 04:13:03;;;;;;;33.80;12.70;;;0.30;99.90;;;;;;5020767;28;20651;-68
2021/11/26 04:15:32;;;;;;;29.90;11.02;;;0.30;99.90;;;;;;5022114;28;20946;-68
2021/11/26 04:17:58;;;;;;;32.00;11.88;;;0.30;99.90;;;;;;5022196;28;20031;-68
2021/11/26 04:20:24;;;;;;;28.98;11.20;;;0.30;99.90;;;;;;5019531;28;20024;-68
2021/11/26 04:22:49;;;;;;;30.08;10.82;;;0.30;99.90;;;;;;5000749;28;20030;-68
2021/11/26 04:25:17;;;;;;;30.08;12.57;;;0.30;99.90;;;;;;4996506;28;20104;-68
2021/11/26 04:27:43;;;;;;;31.05;11.15;;;0.30;99.90;;;;;;4995856;28;20025;-68
2021/11/26 04:30:10;;;;;;;33.97;12.45;;;0.30;99.90;;;;;;5016397;28;20041;-68
2021/11/26 04:32:37;;;;;;;35.65;10.95;;;0.30;99.90;;;;;;5008787;28;20386;-68
2021/11/26 04:35:04;;;;;;;41.67;13.38;;;0.30;99.90;;;;;;5018442;28;20450;-68
2021/11/26 04:37:30;;;;;;;42.42;13.02;;;0.30;99.90;;;;;;4996291;28;20065;-68
2021/11/26 04:39:55;;;;;;;41.42;12.65;;;0.30;99.90;;;;;;5017873;28;20065;-68
2021/11/26 04:42:21;;;;;;;32.13;12.38;;;0.30;99.90;;;;;;5017200;28;20113;-68
2021/11/26 04:44:47;;;;;;;34.28;12.07;;;0.20;99.90;;;;;;5016177;28;20025;-68
2021/11/26 04:47:12;;;;;;;28.70;10.25;;;0.20;99.90;;;;;;5016182;28;20080;-68
2021/11/26 04:49:38;;;;;;;35.10;13.40;;;0.20;99.90;;;;;;5013689;28;20116;-68
2021/11/26 04:52:04;;;;;;;36.47;9.88;;;0.20;99.90;;;;;;5013888;28;20407;-68
2021/11/26 04:54:30;;;;;;;30.02;10.65;;;0.20;99.90;;;;;;5011720;28;20422;-68
2021/11/26 04:56:58;;;;;;;31.15;10.98;;;0.20;99.90;;;;;;4997583;28;20030;-68
2021/11/26 04:59:24;;;;;;;31.75;10.77;;;0.10;99.90;;;;;;4998532;28;20037;-68
2021/11/26 05:01:49;;;;;;;31.30;12.77;;;0.10;99.90;;;;;;5012062;28;20057;-68
2021/11/26 05:04:15;;;;;;;35.17;11.50;;;0.10;99.90;;;;;;5013549;28;20029;-68
2021/11/26 05:06:41;;;;;;;29.65;9.15;;;0.10;99.90;;;;;;5014548;28;20040;-68
2021/11/26 05:09:08;;;;;;;41.00;12.02;;;0.10;99.90;;;;;;5000108;28;21497;-68
2021/11/26 05:11:34;;;;;;;33.22;13.90;;;0.10;99.90;;;;;;5000125;28;20037;-68
2021/11/26 05:14:02;;;;;;;32.75;10.75;;;0.10;99.90;;;;;;5011897;28;20037;-68
2021/11/26 05:16:28;;;;;;;34.00;10.52;;;0.10;99.90;;;;;;5014083;28;20022;-68
2021/11/26 05:18:55;;;;;;;33.38;11.38;;;0.10;99.90;;;;;;5015806;28;20146;-67
2021/11/26 05:21:20;;;;;;;37.45;12.27;;;0.10;99.90;;;;;;4997038;28;20545;-68
2021/11/26 05:23:46;;;;;;;34.83;12.27;;;0.10;99.90;;;;;;5014403;28;20418;-68
2021/11/26 05:26:12;;;;;;;39.88;11.68;;;0.10;99.90;;;;;;5015521;28;20398;-68
2021/11/26 05:28:38;;;;;;;40.05;12.82;;;0.10;99.90;;;;;;5016848;28;20056;-68
2021/11/26 05:31:04;;;;;;;34.95;11.20;;;0.10;99.90;;;;;;5013435;28;20045;-68
2021/11/26 05:33:30;;;;;;;38.70;12.15;;;0.10;99.90;;;;;;5014661;28;20049;-68
2021/11/26 05:35:55;;;;;;;33.25;10.00;;;0.20;99.90;;;;;;5013239;28;20029;-68
2021/11/26 05:38:21;;;;;;;31.23;12.27;;;0.20;99.90;;;;;;5018033;28;20171;-68
2021/11/26 05:40:47;;;;;;;25.08;10.52;;;0.20;99.90;;;;;;5017844;28;20026;-68
2021/11/26 05:43:13;;;;;;;29.73;10.73;;;0.20;99.90;;;;;;5015975;28;20033;-68
2021/11/26 05:45:39;;;;;;;31.80;10.30;;;0.20;99.90;;;;;;4995354;28;20454;-68
2021/11/26 05:48:05;;;;;;;30.27;11.40;;;0.10;99.90;;;;;;5016989;28;20057;-68
2021/11/26 05:50:30;;;;;;;25.70;9.40;;;0.20;99.90;;;;;;5011650;28;21508;-68
2021/11/26 05:52:57;;;;;;;33.65;11.05;;;0.20;99.90;;;;;;4995829;28;20132;-67
2021/11/26 05:55:26;;;;;;;30.67;9.45;;;0.20;99.90;;;;;;5012642;28;20135;-67
2021/11/26 05:57:53;;;;;;;33.90;11.13;;;0.20;99.90;;;;;;5002123;28;20038;-68
2021/11/26 06:00:22;;;;;;;25.33;11.05;;;0.10;99.90;;;;;;5016418;28;20553;-68
2021/11/26 06:02:48;;;;;;;41.90;13.40;;;0.20;99.90;;;;;;5018883;28;20546;-68
2021/11/26 06:05:15;;;;;;;31.73;9.45;;;0.10;99.90;;;;;;5015516;28;20505;-68
2021/11/26 06:07:41;;;;;;;33.35;11.50;;;0.20;99.90;;;;;;5012694;28;20044;-68
2021/11/26 06:10:10;;;;;;;37.88;12.55;;;0.10;99.90;;;;;;4994755;28;20091;-68
2021/11/26 06:12:40;;;;;;;26.65;9.90;;;0.20;99.90;;;;;;5012991;28;20045;-68
2021/11/26 06:15:08;;;;;;;38.33;11.05;;;0.10;99.90;;;;;;5012714;28;20029;-68
2021/11/26 06:17:33;;;;;;;32.10;10.98;;;0.10;99.90;;;;;;5014251;28;20029;-68
2021/11/26 06:19:59;;;;;;;31.55;11.20;;;0.10;99.90;;;;;;5014290;28;20040;-68
2021/11/26 06:22:25;;;;;;;32.88;11.65;;;0.10;99.90;;;;;;5013250;28;20033;-68
2021/11/26 06:24:50;;;;;;;30.70;10.20;;;0.10;99.90;;;;;;4994677;28;20052;-68
2021/11/26 06:27:16;;;;;;;33.10;10.57;;;0.10;99.90;;;;;;5015743;28;20068;-68
2021/11/26 06:29:42;;;;;;;32.03;10.90;;;0.20;99.90;;;;;;5017894;28;20483;-68
2021/11/26 06:32:07;;;;;;;31.00;11.73;;;0.20;99.90;;;;;;5013684;28;20095;-68
2021/11/26 06:34:33;;;;;;;37.67;11.60;;;0.20;99.90;;;;;;5009628;28;20099;-68
2021/11/26 06:36:59;;;;;;;32.40;10.45;;;0.20;99.90;;;;;;5010978;28;20818;-68
2021/11/26 06:39:24;;;;;;;35.92;11.50;;;0.20;99.90;;;;;;5010543;28;20029;-68
2021/11/26 06:41:50;;;;;;;30.50;12.45;;;0.20;99.90;;;;;;4995617;28;20034;-68
2021/11/26 06:44:16;;;;;;;36.10;11.60;;;0.20;99.90;;;;;;4993932;28;20033;-68
2021/11/26 06:46:41;;;;;;;33.00;11.55;;;0.20;99.90;;;;;;5010510;28;20645;-68
2021/11/26 06:49:07;;;;;;;28.75;9.82;;;0.20;99.90;;;;;;5012832;28;20136;-68
2021/11/26 06:51:33;;;;;;;31.70;13.93;;;0.20;99.90;;;;;;5009912;28;20041;-68
2021/11/26 06:53:59;;;;;;;34.58;10.80;;;0.20;99.90;;;;;;5011778;28;20057;-68
2021/11/26 06:56:25;;;;;;;38.55;13.68;;;0.20;99.90;;;;;;5012648;28;20497;-68
2021/11/26 06:58:54;;;;;;;23.45;8.70;;;0.20;99.90;;;;;;5013084;28;20041;-68
2021/11/26 07:01:20;;;;;;;25.38;11.35;;;0.30;99.90;;;;;;5012124;28;20056;-68
2021/11/26 07:03:46;;;;;;;34.63;12.55;;;0.30;99.90;;;;;;4990178;28;20061;-68
2021/11/26 07:06:12;;;;;;;25.27;8.38;;;0.30;99.90;;;;;;5009053;28;20561;-68
2021/11/26 07:08:37;;;;;;;36.60;10.57;;;0.20;99.90;;;;;;5007080;28;20037;-67
2021/11/26 07:11:03;;;;;;;34.22;11.07;;;0.20;99.90;;;;;;5009306;28;20104;-68
2021/11/26 07:13:29;;;;;;;32.20;10.20;;;0.30;99.90;;;;;;5011501;28;20042;-68
2021/11/26 07:15:54;;;;;;;32.20;9.20;;;0.30;99.90;;;;;;5010796;28;20030;-68
2021/11/26 07:18:20;;;;;;;30.92;12.10;;;0.30;99.90;;;;;;5010857;28;20130;-68
2021/11/26 07:20:45;;;;;;;39.22;13.40;;;0.30;99.90;;;;;;5010077;28;20021;-68
2021/11/26 07:23:11;;;;;;;28.10;11.30;;;0.30;99.90;;;;;;5009180;28;20045;-68
2021/11/26 07:25:37;;;;;;;36.15;10.38;;;0.30;99.90;;;;;;4991622;28;20309;-68
2021/11/26 07:28:03;;;;;;;29.13;10.85;;;0.30;99.90;;;;;;5013828;28;21977;-68
2021/11/26 07:30:28;;;;;;;33.03;10.65;;;0.30;99.90;;;;;;4992106;28;20847;-68
2021/11/26 07:32:54;;;;;;;34.70;13.27;;;0.30;99.90;;;;;;5010293;28;20038;-68
2021/11/26 07:35:19;;;;;;;29.63;8.82;;;0.30;99.90;;;;;;5010187;28;20060;-68
2021/11/26 07:37:45;;;;;;;28.02;10.77;;;0.30;99.90;;;;;;5011690;28;20505;-68
2021/11/26 07:40:12;;;;;;;33.40;11.95;;;0.30;99.90;;;;;;5010802;28;21048;-68
2021/11/26 07:42:39;;;;;;;30.13;11.75;;;0.30;99.90;;;;;;5011169;28;20084;-68
2021/11/26 07:45:06;;;;;;;36.33;11.45;;;0.30;99.90;;;;;;5012561;28;20037;-68
2021/11/26 07:47:32;;;;;;;39.20;10.52;;;0.30;99.90;;;;;;4996428;28;20072;-68
2021/11/26 07:49:57;;;;;;;29.92;12.55;;;0.30;99.90;;;;;;5010762;28;20555;-68
2021/11/26 07:52:23;;;;;;;28.02;10.32;;;0.30;99.90;;;;;;4991513;28;20045;-68
2021/11/26 07:54:50;;;;;;;32.90;11.57;;;0.30;99.90;;;;;;5009341;28;20029;-68
2021/11/26 07:57:15;;;;;;;27.33;10.48;;;0.40;99.90;;;;;;5010837;28;20856;-68
2021/11/26 07:59:41;;;;;;;31.05;10.77;;;0.40;99.90;;;;;;5009774;28;20026;-68
2021/11/26 08:02:07;;;;;;;28.52;11.73;;;0.40;99.90;;;;;;5007430;28;20060;-68
2021/11/26 08:04:33;;;;;;;24.98;9.77;;;0.40;99.90;;;;;;5008232;28;20029;-68
2021/11/26 08:06:59;;;;;;;30.02;11.27;;;0.40;99.90;;;;;;5009208;28;20037;-68
2021/11/26 08:09:27;;;;;;;30.98;10.85;;;0.40;99.90;;;;;;5011627;28;20176;-68
2021/11/26 08:11:53;;;;;;;29.45;9.88;;;0.50;99.90;;;;;;5008890;28;20091;-68
2021/11/26 08:14:19;;;;;;;31.90;10.77;;;0.40;99.90;;;;;;5007063;28;20125;-69
2021/11/26 08:16:46;;;;;;;30.52;11.77;;;0.40;99.90;;;;;;5010516;28;21506;-68
2021/11/26 08:19:12;;;;;;;27.42;11.23;;;0.50;99.90;;;;;;5010744;28;20048;-69
2021/11/26 08:21:39;;;;;;;29.60;10.48;;;0.40;99.90;;;;;;5011165;28;20030;-68
2021/11/26 08:24:06;;;;;;;37.88;11.35;;;0.50;99.90;;;;;;5010964;28;20033;-68
2021/11/26 08:26:34;;;;;;;34.13;11.83;;;0.50;99.90;;;;;;5009796;28;21065;-68
2021/11/26 08:29:02;;;;;;;28.15;11.45;;;0.50;99.90;;;;;;5007868;28;20678;-68
2021/11/26 08:31:27;;;;;;;36.07;12.80;;;0.50;99.90;;;;;;5007817;28;20159;-68
2021/11/26 08:33:53;;;;;;;38.50;12.80;;;0.50;99.90;;;;;;5008149;28;20288;-68
2021/11/26 08:36:18;;;;;;;31.67;11.40;;;0.50;99.90;;;;;;5010364;28;20057;-68
2021/11/26 08:38:44;;;;;;;37.25;11.20;;;0.50;99.90;;;;;;5009898;28;20148;-69
2021/11/26 08:41:10;;;;;;;33.75;12.40;;;0.50;99.90;;;;;;5011588;28;20022;-68
2021/11/26 08:43:36;;;;;;;38.13;10.52;;;0.60;99.90;;;;;;5007537;28;20036;-68
2021/11/26 08:46:01;;;;;;;34.65;11.98;;;0.60;99.90;;;;;;5006557;28;20032;-68
2021/11/26 08:48:27;;;;;;;31.92;11.60;;;0.60;99.90;;;;;;5010311;28;20040;-68
2021/11/26 08:50:53;;;;;;;29.55;10.60;;;0.60;99.90;;;;;;5006726;28;20041;-68
2021/11/26 08:53:19;;;;;;;27.30;10.65;;;0.60;99.90;;;;;;5008054;28;20080;-68
2021/11/26 08:55:53;;;;;;;28.60;9.70;;;0.60;99.90;;;;;;4994255;28;21203;-68
2021/11/26 08:58:18;;;;;;;32.88;11.13;;;0.60;99.90;;;;;;5008114;28;20055;-68
2021/11/26 09:00:44;;;;;;;32.92;12.52;;;0.60;99.90;;;;;;5009722;28;20120;-68
2021/11/26 09:03:12;;;;;;;29.52;11.00;;;0.60;99.90;;;;;;5008783;28;20080;-67
2021/11/26 09:05:37;;;;;;;38.03;12.25;;;0.60;99.90;;;;;;5010099;28;20697;-68
2021/11/26 09:08:04;;;;;;;40.13;10.95;;;0.60;99.90;;;;;;5012035;28;20084;-68
2021/11/26 09:10:34;;;;;;;30.77;10.63;;;0.60;99.90;;;;;;5009897;28;20136;-68
2021/11/26 09:13:01;;;;;;;30.00;11.75;;;0.70;99.90;;;;;;5009154;28;20021;-68
2021/11/26 09:15:31;;;;;;;21.60;9.32;;;0.60;99.90;;;;;;5007111;28;20033;-68
2021/11/26 09:17:57;;;;;;;35.80;9.27;;;0.60;99.90;;;;;;5007535;28;20036;-68
2021/11/26 09:20:23;;;;;;;26.13;10.25;;;0.60;99.90;;;;;;5007208;28;20053;-68
2021/11/26 09:22:49;;;;;;;26.30;10.68;;;0.70;99.90;;;;;;5011676;28;20032;-69
2021/11/26 09:25:15;;;;;;;36.55;10.73;;;0.70;99.90;;;;;;5014035;28;20029;-68
2021/11/26 09:27:42;;;;;;;22.55;10.23;;;0.70;99.90;;;;;;4995300;28;20068;-69
2021/11/26 09:30:13;;;;;;;21.60;8.93;;;0.80;99.90;;;;;;5010805;28;20117;-68
2021/11/26 09:32:39;;;;;;;25.33;10.02;;;0.80;99.90;;;;;;5010398;28;20109;-68
2021/11/26 09:35:06;;;;;;;25.05;8.70;;;0.80;99.90;;;;;;4990366;28;20199;-68
2021/11/26 09:37:31;;;;;;;21.75;8.45;;;0.80;99.90;;;;;;4995200;28;20079;-68
2021/11/26 09:39:57;;;;;;;25.85;8.57;;;0.80;99.90;;;;;;5012680;28;20693;-69
2021/11/26 09:42:23;;;;;;;31.33;10.52;;;0.80;99.90;;;;;;5009842;28;20638;-69
2021/11/26 09:44:51;;;;;;;26.98;10.90;;;0.80;99.90;;;;;;4990093;28;20037;-69
2021/11/26 09:47:16;;;;;;;23.83;9.18;;;0.80;99.90;;;;;;5008579;28;20033;-69
2021/11/26 09:49:42;;;;;;;21.50;8.68;;;0.80;99.90;;;;;;5003771;28;20061;-69
2021/11/26 09:52:08;;;;;;;32.38;11.25;;;0.80;99.90;;;;;;5006928;28;20065;-69
2021/11/26 09:54:39;;;;;;;28.42;10.23;;;0.80;99.90;;;;;;5003140;28;20022;-68
2021/11/26 09:57:07;;;;;;;26.67;9.45;;;0.80;99.90;;;;;;5007542;28;20029;-68
2021/11/26 09:59:33;;;;;;;26.98;9.43;;;0.80;99.90;;;;;;4986556;28;20394;-68
2021/11/26 10:02:18;;;;;;;26.08;10.52;;;0.80;99.90;;;;;;4986015;28;20037;-70
2021/11/26 10:04:55;;;;;;;19.48;9.52;;;0.80;99.90;;;;;;5004318;28;21097;-68
2021/11/26 10:07:21;;;;;;;19.30;8.15;;;0.90;99.90;;;;;;5010094;28;20025;-68
2021/11/26 10:09:47;;;;;;;32.15;10.25;;;0.80;99.90;;;;;;5003995;28;20159;-69
2021/11/26 10:12:15;;;;;;;26.63;8.82;;;0.90;99.90;;;;;;4989248;28;20053;-69
2021/11/26 10:14:45;;;;;;;27.80;9.30;;;0.90;99.90;;;;;;5007201;28;20122;-68
2021/11/26 10:17:24;;;;;;;27.38;8.65;;;0.90;99.90;;;;;;5005487;28;20029;-68
2021/11/26 10:19:54;;;;;;;22.05;7.47;;;0.90;99.90;;;;;;5005551;28;20066;-68
2021/11/26 10:22:23;;;;;;;18.60;8.77;;;0.90;99.90;;;;;;4989501;28;20076;-68
2021/11/26 10:25:15;;;;;;;;;;;0.90;99.90;;;;;;5006749;28;20033;-69
2021/11/26 10:28:02;;;;;;;15.45;8.60;;;0.90;99.90;;;;;;5000892;28;19924;-69
2021/11/26 10:30:34;;;;;;;18.08;7.72;;;0.90;99.90;;;;;;5005228;28;20080;-68
2021/11/26 10:33:04;;;;;;;21.60;7.15;;;0.90;99.90;;;;;;5003714;28;20057;-68
2021/11/26 10:35:42;;;;;;;21.02;8.45;;;0.90;99.90;;;;;;5003628;28;20029;-68
2021/11/26 10:38:08;;;;;;;21.80;8.27;;;1.00;99.90;;;;;;5007061;28;20441;-68
2021/11/26 10:40:36;;;;;;;28.65;9.30;;;0.90;99.90;;;;;;4990503;28;20045;-69
2021/11/26 10:43:04;;;;;;;24.03;7.70;;;0.90;99.90;;;;;;5001759;28;20138;-69
2021/11/26 10:59:04;;;;;;;21.15;8.35;;;1.00;99.90;;;;;;5004181;28;20131;-69
2021/11/26 11:01:43;;;;;;;27.95;8.98;;;1.00;99.90;;;;;;4982100;28;20044;-69
2021/11/26 11:04:12;;;;;;;;;;;1.00;99.90;;;;;;5008522;28;20502;-69
2021/11/26 11:06:38;;;;;;;20.40;8.10;;;1.00;99.90;;;;;;5002361;28;19917;-68
2021/11/26 11:09:08;;;;;;;18.05;7.32;;;1.00;99.90;;;;;;5004238;28;20029;-68
2021/11/26 11:11:35;;;;;;;24.25;8.93;;;1.00;99.90;;;;;;5001925;28;20669;-70
2021/11/26 11:14:12;;;;;;;25.27;9.67;;;1.00;99.90;;;;;;5001314;28;22120;-68
2021/11/26 11:16:49;;;;;;;23.38;7.97;;;1.00;99.90;;;;;;4985986;28;20040;-69
2021/11/26 11:19:15;;;;;;;24.58;9.27;;;1.10;99.90;;;;;;5004312;28;20577;-69
2021/11/26 11:21:41;;;;;;;25.00;9.82;;;1.00;99.90;;;;;;5001276;28;20034;-69
2021/11/26 11:24:06;;;;;;;22.38;8.38;;;1.00;99.90;;;;;;4981222;28;20037;-68
2021/11/26 11:26:32;;;;;;;30.00;9.68;;;1.10;99.90;;;;;;5001810;28;20038;-69
2021/11/26 11:28:58;;;;;;;21.77;8.98;;;1.10;99.90;;;;;;5001039;28;20051;-69
2021/11/26 11:31:24;;;;;;;30.42;9.05;;;1.10;99.90;;;;;;4985090;28;20080;-69
2021/11/26 11:33:51;;;;;;;23.48;9.25;;;1.10;99.90;;;;;;4981118;28;20061;-69
2021/11/26 11:36:17;;;;;;;22.58;7.53;;;1.10;99.90;;;;;;4999381;28;20057;-68
2021/11/26 11:38:43;;;;;;;21.85;7.63;;;1.20;99.90;;;;;;5001587;28;20036;-69
2021/11/26 11:41:09;;;;;;;24.27;8.18;;;1.20;99.90;;;;;;5000620;28;20132;-68
2021/11/26 11:43:48;;;;;;;18.27;6.95;;;1.20;99.90;;;;;;4986762;28;20037;-68
2021/11/26 11:46:15;;;;;;;18.83;7.57;;;1.20;99.90;;;;;;4990998;28;20029;-68
2021/11/26 11:48:49;;;;;;;23.77;8.17;;;1.30;99.90;;;;;;4999013;28;20107;-68
2021/11/26 11:51:23;;;;;;;24.67;9.73;;;1.30;99.90;;;;;;5002406;28;20048;-69
2021/11/26 11:54:11;;;;;;;27.33;9.27;;;1.30;99.90;;;;;;4983207;28;20050;-69
2021/11/26 11:56:43;;;;;;;21.60;8.70;;;1.30;99.90;;;;;;4981500;28;20041;-68
2021/11/26 11:59:10;;;;;;;25.10;8.85;;;1.20;99.90;;;;;;5001045;28;20877;-68
2021/11/26 12:01:41;;;;;;;26.25;10.10;;;1.30;99.90;;;;;;4999949;28;20034;-68
2021/11/26 12:04:19;;;;;;;25.48;7.72;;;1.40;99.90;;;;;;5000539;28;21140;-69
2021/11/26 12:06:48;;;;;;;24.92;9.85;;;1.40;99.90;;;;;;4988410;28;20536;-69
2021/11/26 12:09:25;;;;;;;22.38;7.63;;;1.40;99.90;;;;;;5000498;28;20037;-68
2021/11/26 12:12:04;;;;;;;22.83;8.40;;;1.30;99.90;;;;;;4981980;28;20029;-68
2021/11/26 12:14:30;;;;;;;;;;;1.40;99.90;;;;;;5003808;28;20037;-69
2021/11/26 12:17:14;;;;;;;16.65;8.75;;;1.40;99.90;;;;;;5001457;28;19918;-68
2021/11/26 12:19:41;;;;;;;19.08;6.95;;;1.30;99.90;;;;;;5004397;28;21549;-69
2021/11/26 12:22:14;;;;;;;20.00;7.72;;;1.40;99.90;;;;;;5000021;28;20134;-68
2021/11/26 12:24:44;;;;;;;25.02;8.55;;;1.40;99.90;;;;;;5002395;28;20034;-69
2021/11/26 12:27:25;;;;;;;25.08;7.82;;;1.40;99.90;;;;;;4981742;28;20029;-69
2021/11/26 12:29:52;;;;;;;22.45;9.10;;;1.50;99.90;;;;;;4999723;28;20379;-68
2021/11/26 12:32:28;;;;;;;26.05;9.10;;;1.40;99.90;;;;;;4981158;28;21213;-69
2021/11/26 12:34:59;;;;;;;27.63;10.70;;;1.40;99.90;;;;;;4983899;28;20036;-68
2021/11/26 12:37:30;;;;;;;26.98;8.70;;;1.40;99.90;;;;;;5002693;28;20029;-68
2021/11/26 12:40:16;;;;;;;23.15;8.40;;;1.40;99.90;;;;;;4999565;28;20049;-68
2021/11/26 12:42:42;;;;;;;27.90;9.02;;;1.40;99.90;;;;;;4998492;28;20067;-69
2021/11/26 12:45:14;;;;;;;21.38;8.77;;;1.50;99.90;;;;;;4985718;28;20037;-69
2021/11/26 12:48:04;;;;;;;16.08;7.25;;;1.50;99.90;;;;;;4998703;28;20033;-68
2021/11/26 12:53:21;;;;;;;27.15;8.60;;;1.50;99.90;;;;;;5001209;28;20060;-69
2021/11/26 12:55:55;;;;;;;17.00;7.03;;;1.50;99.90;;;;;;5001513;28;20108;-69